^^
Grace C. Lehan Memorial Weather Station Historical Data
Daily Summary for January 8, 2021 Units:  Both    English   Metric
Daily Weekly Monthly Yearly
  High: Low: Average:
Temperature: 72.5 °F /  22.5 °C 55.9 °F /  13.3 °C 64.4 °F /  18 °C
Dew Point: 63.3 °F /  17.4 °C 54.5 °F /  12.5 °C 58.6 °F /  14.8 °C
Humidity: 96.8% 64.3% 82%
Wind Speed: 2.8mph /  4.5km/h - 0.3mph /  0.5km/h
Wind Gust: 13mph /  20.9km/h - -
Wind- - East
Pressure: 30.22 in /  1023.2 hPa 30.11 in /  1019.5 hPa -
Precipitation: 0.00 in /  0 mm    
 
 
Tabular Data for January 8, 2021
Time Temperature Dew Point Pressure Wind Wind Speed Wind Gust Humidity Rainfall Rate (Hourly) solar
00:04 59.1 °F /  15.1 °C 57.4 °F /  14.1 °C 30.14in /  1020.5hPa Calm     94% 0.00in /  0mm 0 W/m2
00:09 59.1 °F /  15.1 °C 57.4 °F /  14.1 °C 30.14in /  1020.5hPa Calm     94% 0.00in /  0mm 0 W/m2
00:14 59 °F /  15 °C 57.3 °F /  14.1 °C 30.14in /  1020.5hPa Calm     94% 0.00in /  0mm 0 W/m2
00:19 59 °F /  15 °C 57.3 °F /  14.1 °C 30.14in /  1020.5hPa Calm     94% 0.00in /  0mm 0 W/m2
00:24 58.9 °F /  14.9 °C 57.2 °F /  14 °C 30.14in /  1020.5hPa Calm     94% 0.00in /  0mm 0 W/m2
00:29 58.9 °F /  14.9 °C 57.2 °F /  14 °C 30.14in /  1020.5hPa Calm     94% 0.00in /  0mm 0 W/m2
00:34 58.9 °F /  14.9 °C 57.2 °F /  14 °C 30.13in /  1020.2hPa Calm     94% 0.00in /  0mm 0 W/m2
00:39 58.8 °F /  14.9 °C 57.1 °F /  13.9 °C 30.13in /  1020.2hPa Calm     94% 0.00in /  0mm 0 W/m2
00:44 58.7 °F /  14.8 °C 57 °F /  13.9 °C 30.13in /  1020.2hPa Calm     94% 0.00in /  0mm 0 W/m2
00:49 58.6 °F /  14.8 °C 56.9 °F /  13.8 °C 30.13in /  1020.2hPa Calm     94% 0.00in /  0mm 0 W/m2
00:54 58.5 °F /  14.7 °C 56.8 °F /  13.8 °C 30.13in /  1020.2hPa Calm     94% 0.00in /  0mm 0 W/m2
00:59 58.4 °F /  14.7 °C 56.7 °F /  13.7 °C 30.13in /  1020.2hPa Calm     94% 0.00in /  0mm 0 W/m2
01:04 58.3 °F /  14.6 °C 56.6 °F /  13.7 °C 30.13in /  1020.2hPa Calm     94% 0.00in /  0mm 0 W/m2
01:09 58.2 °F /  14.6 °C 56.5 °F /  13.6 °C 30.13in /  1020.2hPa Calm     94% 0.00in /  0mm 0 W/m2
01:14 58.1 °F /  14.5 °C 56.4 °F /  13.6 °C 30.13in /  1020.2hPa Calm     94% 0.00in /  0mm 0 W/m2
01:19 58 °F /  14.4 °C 56.3 °F /  13.5 °C 30.13in /  1020.2hPa Calm     94% 0.00in /  0mm 0 W/m2
01:24 58 °F /  14.4 °C 56.3 °F /  13.5 °C 30.13in /  1020.2hPa Calm     94% 0.00in /  0mm 0 W/m2
01:29 58 °F /  14.4 °C 56.3 °F /  13.5 °C 30.12in /  1019.9hPa Calm     94% 0.00in /  0mm 0 W/m2
01:34 58 °F /  14.4 °C 56.3 °F /  13.5 °C 30.12in /  1019.9hPa Calm     94% 0.00in /  0mm 0 W/m2
01:39 58 °F /  14.4 °C 56.3 °F /  13.5 °C 30.12in /  1019.9hPa Calm     94% 0.00in /  0mm 0 W/m2
01:44 58 °F /  14.4 °C 56.3 °F /  13.5 °C 30.12in /  1019.9hPa Calm     94% 0.00in /  0mm 0 W/m2
01:49 57.9 °F /  14.4 °C 56.4 °F /  13.6 °C 30.12in /  1019.9hPa Calm     94.8% 0.00in /  0mm 0 W/m2
01:54 57.9 °F /  14.4 °C 56.5 °F /  13.6 °C 30.12in /  1019.9hPa Calm     95% 0.00in /  0mm 0 W/m2
01:59 58 °F /  14.4 °C 56.6 °F /  13.7 °C 30.12in /  1019.9hPa Calm     95% 0.00in /  0mm 0 W/m2
02:04 58 °F /  14.4 °C 56.6 °F /  13.7 °C 30.12in /  1019.9hPa Calm     95% 0.00in /  0mm 0 W/m2
02:09 58 °F /  14.4 °C 56.6 °F /  13.7 °C 30.12in /  1019.9hPa Calm     95% 0.00in /  0mm 0 W/m2
02:14 58 °F /  14.4 °C 56.6 °F /  13.7 °C 30.12in /  1019.9hPa Calm     95% 0.00in /  0mm 0 W/m2
02:19 58 °F /  14.4 °C 56.6 °F /  13.7 °C 30.12in /  1019.9hPa Calm     95% 0.00in /  0mm 0 W/m2
02:24 57.9 °F /  14.4 °C 56.5 °F /  13.6 °C 30.12in /  1019.9hPa Calm     95% 0.00in /  0mm 0 W/m2
02:29 57.9 °F /  14.4 °C 56.5 °F /  13.6 °C 30.11in /  1019.5hPa Calm     95% 0.00in /  0mm 0 W/m2
02:34 57.8 °F /  14.3 °C 56.4 °F /  13.6 °C 30.11in /  1019.5hPa Calm     95% 0.00in /  0mm 0 W/m2
02:39 57.8 °F /  14.3 °C 56.4 °F /  13.6 °C 30.11in /  1019.5hPa Calm     95% 0.00in /  0mm 0 W/m2
02:44 57.7 °F /  14.3 °C 56.3 °F /  13.5 °C 30.11in /  1019.5hPa Calm     95% 0.00in /  0mm 0 W/m2
02:49 57.6 °F /  14.2 °C 56.1 °F /  13.4 °C 30.11in /  1019.5hPa Calm     95% 0.00in /  0mm 0 W/m2
02:54 57.4 °F /  14.1 °C 56 °F /  13.3 °C 30.11in /  1019.5hPa Calm     95% 0.00in /  0mm 0 W/m2
02:59 57.2 °F /  14 °C 55.8 °F /  13.2 °C 30.11in /  1019.5hPa Calm     95% 0.00in /  0mm 0 W/m2
03:04 57.1 °F /  13.9 °C 55.6 °F /  13.1 °C 30.11in /  1019.5hPa Calm     95% 0.00in /  0mm 0 W/m2
03:09 57 °F /  13.9 °C 55.5 °F /  13.1 °C 30.11in /  1019.5hPa Calm     95% 0.00in /  0mm 0 W/m2
03:14 56.9 °F /  13.8 °C 55.5 °F /  13.1 °C 30.11in /  1019.5hPa Calm     95% 0.00in /  0mm 0 W/m2
03:19 56.9 °F /  13.8 °C 55.5 °F /  13.1 °C 30.11in /  1019.5hPa Calm     95% 0.00in /  0mm 0 W/m2
03:24 56.9 °F /  13.8 °C 55.5 °F /  13.1 °C 30.11in /  1019.5hPa Calm     95% 0.00in /  0mm 0 W/m2
03:29 56.8 °F /  13.8 °C 55.4 °F /  13 °C 30.11in /  1019.5hPa Calm     95% 0.00in /  0mm 0 W/m2
03:34 56.8 °F /  13.8 °C 55.4 °F /  13 °C 30.11in /  1019.5hPa Calm     95% 0.00in /  0mm 0 W/m2
03:39 56.8 °F /  13.8 °C 55.4 °F /  13 °C 30.11in /  1019.5hPa Calm     95% 0.00in /  0mm 0 W/m2
03:44 56.8 °F /  13.8 °C 55.4 °F /  13 °C 30.11in /  1019.5hPa Calm     95% 0.00in /  0mm 0 W/m2
03:49 56.9 °F /  13.8 °C 55.5 °F /  13.1 °C 30.11in /  1019.5hPa Calm     95% 0.00in /  0mm 0 W/m2
03:54 57 °F /  13.9 °C 55.6 °F /  13.1 °C 30.11in /  1019.5hPa Calm     95% 0.00in /  0mm 0 W/m2
03:59 57.1 °F /  13.9 °C 55.7 °F /  13.2 °C 30.11in /  1019.5hPa Calm     95% 0.00in /  0mm 0 W/m2
04:04 57.1 °F /  13.9 °C 55.7 °F /  13.2 °C 30.11in /  1019.5hPa Calm     95% 0.00in /  0mm 0 W/m2
04:09 57.1 °F /  13.9 °C 55.7 °F /  13.2 °C 30.11in /  1019.5hPa Calm     95% 0.00in /  0mm 0 W/m2
04:14 57.1 °F /  13.9 °C 55.9 °F /  13.3 °C 30.11in /  1019.5hPa Calm     95.6% 0.00in /  0mm 0 W/m2
04:19 57.1 °F /  13.9 °C 56 °F /  13.3 °C 30.11in /  1019.5hPa Calm     96% 0.00in /  0mm 0 W/m2
04:22 57.1 °F /  13.9 °C 56 °F /  13.3 °C 30.11in /  1019.5hPa Calm     96% 0.00in /  0mm 0 W/m2
05:00 56.9 °F /  13.8 °C 55.5 °F /  13.1 °C 30.11in /  1019.5hPa Calm     95% 0.00in /  0mm 0 W/m2
05:30 56.6 °F /  13.7 °C 55.2 °F /  12.9 °C 30.11in /  1019.5hPa Calm     95% 0.00in /  0mm 0 W/m2
06:00 56.3 °F /  13.5 °C 54.9 °F /  12.7 °C 30.12in /  1019.9hPa Calm     95% 0.00in /  0mm 0 W/m2
06:30 56.2 °F /  13.4 °C 55.1 °F /  12.8 °C 30.12in /  1019.9hPa Calm     96% 0.00in /  0mm 0 W/m2
07:00 55.9 °F /  13.3 °C 54.8 °F /  12.7 °C 30.12in /  1019.9hPa Calm     96% 0.00in /  0mm 0 W/m2
07:30 56.2 °F /  13.4 °C 55.1 °F /  12.8 °C 30.13in /  1020.2hPa Calm     96% 0.00in /  0mm 11 W/m2
08:04 56.5 °F /  13.6 °C 55.4 °F /  13 °C 30.15in /  1020.9hPa Calm     96% 0.00in /  0mm 33 W/m2
08:09 56.5 °F /  13.6 °C 55.4 °F /  13 °C 30.15in /  1020.9hPa Calm     96% 0.00in /  0mm 49 W/m2
08:14 56.7 °F /  13.7 °C 55.5 °F /  13.1 °C 30.15in /  1020.9hPa Calm     96% 0.00in /  0mm 39 W/m2
08:19 56.8 °F /  13.8 °C 55.7 °F /  13.2 °C 30.15in /  1020.9hPa Calm     96% 0.00in /  0mm 33 W/m2
08:24 56.9 °F /  13.8 °C 55.8 °F /  13.2 °C 30.15in /  1020.9hPa Calm     96% 0.00in /  0mm 33 W/m2
08:29 57.1 °F /  13.9 °C 55.9 °F /  13.3 °C 30.15in /  1020.9hPa Calm     96% 0.00in /  0mm 35 W/m2
08:34 57.2 °F /  14 °C 56.1 °F /  13.4 °C 30.15in /  1020.9hPa Calm     96% 0.00in /  0mm 39 W/m2
08:39 57.4 °F /  14.1 °C 56.3 °F /  13.5 °C 30.14in /  1020.5hPa Calm     96% 0.00in /  0mm 53 W/m2
08:44 57.7 °F /  14.3 °C 56.5 °F /  13.6 °C 30.15in /  1020.9hPa Calm   1mph /  1.6km/h 96% 0.00in /  0mm 56 W/m2
08:49 58 °F /  14.4 °C 56.9 °F /  13.8 °C 30.15in /  1020.9hPa Calm   1mph /  1.6km/h 96.3% 0.00in /  0mm 67 W/m2
08:54 58.2 °F /  14.6 °C 57.3 °F /  14.1 °C 30.15in /  1020.9hPa Calm   1mph /  1.6km/h 96.8% 0.00in /  0mm 72 W/m2
08:59 58.5 °F /  14.7 °C 57.4 °F /  14.1 °C 30.15in /  1020.9hPa Calm   1mph /  1.6km/h 96.2% 0.00in /  0mm 88 W/m2
09:04 58.8 °F /  14.9 °C 57.9 °F /  14.4 °C 30.15in /  1020.9hPa NE 0.3mph /  0.5km/h 4mph /  6.4km/h 96.8% 0.00in /  0mm 338 W/m2
09:09 59.4 °F /  15.2 °C 58.5 °F /  14.7 °C 30.15in /  1020.9hPa NE 0.3mph /  0.5km/h 4mph /  6.4km/h 96.6% 0.00in /  0mm 357 W/m2
09:14 60.2 °F /  15.7 °C 59.2 °F /  15.1 °C 30.15in /  1020.9hPa ENE 0.5mph /  0.8km/h 5mph /  8km/h 96.5% 0.00in /  0mm 369 W/m2
09:19 61.1 °F /  16.2 °C 59.9 °F /  15.5 °C 30.15in /  1020.9hPa North 0.5mph /  0.8km/h 5mph /  8km/h 96% 0.00in /  0mm 383 W/m2
09:24 62.3 °F /  16.8 °C 60.9 °F /  16.1 °C 30.15in /  1020.9hPa ENE 0.2mph /  0.3km/h 5mph /  8km/h 95.2% 0.00in /  0mm 401 W/m2
09:29 63.4 °F /  17.4 °C 61.3 °F /  16.3 °C 30.15in /  1020.9hPa NE 0.5mph /  0.8km/h 5mph /  8km/h 92.8% 0.00in /  0mm 418 W/m2
09:34 64.4 °F /  18 °C 61.1 °F /  16.2 °C 30.15in /  1020.9hPa Calm   5mph /  8km/h 89.2% 0.00in /  0mm 436 W/m2
09:39 65.3 °F /  18.5 °C 61.7 °F /  16.5 °C 30.15in /  1020.9hPa ENE 0.1mph /  0.2km/h 1mph /  1.6km/h 88% 0.00in /  0mm 457 W/m2
09:44 66.2 °F /  19 °C 61.6 °F /  16.4 °C 30.15in /  1020.9hPa Calm   1mph /  1.6km/h 85.1% 0.00in /  0mm 476 W/m2
09:49 67 °F /  19.4 °C 62 °F /  16.7 °C 30.15in /  1020.9hPa Calm   1mph /  1.6km/h 83.9% 0.00in /  0mm 494 W/m2
09:54 67.8 °F /  19.9 °C 62.2 °F /  16.8 °C 30.15in /  1020.9hPa NE 0.1mph /  0.2km/h 2mph /  3.2km/h 82.1% 0.00in /  0mm 561 W/m2
09:59 68.6 °F /  20.3 °C 62.1 °F /  16.7 °C 30.15in /  1020.9hPa East 0.8mph /  1.3km/h 5mph /  8km/h 79.9% 0.00in /  0mm 638 W/m2
10:04 68.9 °F /  20.5 °C 62.3 °F /  16.8 °C 30.15in /  1020.9hPa ENE 0.7mph /  1.1km/h 5mph /  8km/h 79.5% 0.00in /  0mm 309 W/m2
10:09 69 °F /  20.6 °C 61.7 °F /  16.5 °C 30.15in /  1020.9hPa ENE 0.3mph /  0.5km/h 4mph /  6.4km/h 77.7% 0.00in /  0mm 272 W/m2
10:14 68.5 °F /  20.3 °C 61.1 °F /  16.2 °C 30.15in /  1020.9hPa ENE 0.1mph /  0.2km/h 4mph /  6.4km/h 77.2% 0.00in /  0mm 272 W/m2
10:19 68.1 °F /  20.1 °C 61.7 °F /  16.5 °C 30.15in /  1020.9hPa ENE 0.1mph /  0.2km/h 4mph /  6.4km/h 79.9% 0.00in /  0mm 258 W/m2
10:24 68 °F /  20 °C 61.4 °F /  16.3 °C 30.15in /  1020.9hPa ENE 0.5mph /  0.8km/h 4mph /  6.4km/h 79.5% 0.00in /  0mm 306 W/m2
10:29 68 °F /  20 °C 61.5 °F /  16.4 °C 30.15in /  1020.9hPa NE 0.6mph /  1km/h 6mph /  9.7km/h 79.7% 0.00in /  0mm 353 W/m2
10:34 68.1 °F /  20.1 °C 61.4 °F /  16.3 °C 30.15in /  1020.9hPa ENE 1.7mph /  2.7km/h 6mph /  9.7km/h 79.1% 0.00in /  0mm 343 W/m2
10:39 68.5 °F /  20.3 °C 62.2 °F /  16.8 °C 30.15in /  1020.9hPa Calm   6mph /  9.7km/h 80.4% 0.00in /  0mm 374 W/m2
10:44 69 °F /  20.6 °C 62.2 °F /  16.8 °C 30.15in /  1020.9hPa ENE 0.3mph /  0.5km/h 6mph /  9.7km/h 79% 0.00in /  0mm 392 W/m2
10:49 69 °F /  20.6 °C 61.7 °F /  16.5 °C 30.15in /  1020.9hPa ENE 0.5mph /  0.8km/h 6mph /  9.7km/h 77.6% 0.00in /  0mm 378 W/m2
10:54 69 °F /  20.6 °C 62.1 °F /  16.7 °C 30.15in /  1020.9hPa Calm   6mph /  9.7km/h 78.8% 0.00in /  0mm 338 W/m2
10:59 68.9 °F /  20.5 °C 61.9 °F /  16.6 °C 30.15in /  1020.9hPa ENE 0.8mph /  1.3km/h 6mph /  9.7km/h 78.2% 0.00in /  0mm 325 W/m2
11:04 68.8 °F /  20.4 °C 61.9 °F /  16.6 °C 30.15in /  1020.9hPa ENE 0.6mph /  1km/h 6mph /  9.7km/h 78.4% 0.00in /  0mm 308 W/m2
11:09 68.8 °F /  20.4 °C 62 °F /  16.7 °C 30.15in /  1020.9hPa ENE 0.1mph /  0.2km/h 4mph /  6.4km/h 78.8% 0.00in /  0mm 338 W/m2
11:14 68.7 °F /  20.4 °C 61.7 °F /  16.5 °C 30.15in /  1020.9hPa ENE 0.2mph /  0.3km/h 4mph /  6.4km/h 78.3% 0.00in /  0mm 322 W/m2
11:15 68.6 °F /  20.3 °C 61.5 °F /  16.4 °C 30.15in /  1020.9hPa Calm   4mph /  6.4km/h 78% 0.00in /  0mm 283 W/m2
11:30 68.9 °F /  20.5 °C 62.1 °F /  16.7 °C 30.14in /  1020.5hPa Calm   6mph /  9.7km/h 79% 0.00in /  0mm 283 W/m2
12:09 69.5 °F /  20.8 °C 61.5 °F /  16.4 °C 30.14in /  1020.5hPa NE 1mph /  1.6km/h 6mph /  9.7km/h 75.7% 0.00in /  0mm 297 W/m2
12:14 69.6 °F /  20.9 °C 61.6 °F /  16.4 °C 30.14in /  1020.5hPa ENE 0.2mph /  0.3km/h 4mph /  6.4km/h 76% 0.00in /  0mm 306 W/m2
12:19 69.7 °F /  20.9 °C 61.6 °F /  16.4 °C 30.14in /  1020.5hPa ENE 0.6mph /  1km/h 5mph /  8km/h 75.7% 0.00in /  0mm 292 W/m2
12:24 69.7 °F /  20.9 °C 62.2 °F /  16.8 °C 30.14in /  1020.5hPa NE 0.2mph /  0.3km/h 5mph /  8km/h 76.9% 0.00in /  0mm 283 W/m2
12:29 70 °F /  21.1 °C 62.4 °F /  16.9 °C 30.14in /  1020.5hPa East 0.1mph /  0.2km/h 5mph /  8km/h 76.8% 0.00in /  0mm 302 W/m2
12:34 70.2 °F /  21.2 °C 62.3 °F /  16.8 °C 30.14in /  1020.5hPa NW 1.2mph /  1.9km/h 11mph /  17.7km/h 76% 0.00in /  0mm 283 W/m2
12:39 70.3 °F /  21.3 °C 62.5 °F /  16.9 °C 30.14in /  1020.5hPa NW 0.4mph /  0.6km/h 11mph /  17.7km/h 76.2% 0.00in /  0mm 255 W/m2
12:44 70.5 °F /  21.4 °C 62.7 °F /  17.1 °C 30.14in /  1020.5hPa NW 0.3mph /  0.5km/h 11mph /  17.7km/h 76.2% 0.00in /  0mm 260 W/m2
12:49 70.8 °F /  21.6 °C 62.9 °F /  17.2 °C 30.14in /  1020.5hPa Calm   11mph /  17.7km/h 76.1% 0.00in /  0mm 283 W/m2
12:54 71 °F /  21.7 °C 63.2 °F /  17.3 °C 30.14in /  1020.5hPa NNW 0.6mph /  1km/h 11mph /  17.7km/h 76.4% 0.00in /  0mm 283 W/m2
12:59 71.2 °F /  21.8 °C 63.2 °F /  17.3 °C 30.14in /  1020.5hPa NNW 0.9mph /  1.4km/h 11mph /  17.7km/h 75.8% 0.00in /  0mm 279 W/m2
13:04 71.2 °F /  21.8 °C 63.3 °F /  17.4 °C 30.14in /  1020.5hPa Calm   11mph /  17.7km/h 75.9% 0.00in /  0mm 281 W/m2
13:09 71.4 °F /  21.9 °C 63.2 °F /  17.3 °C 30.14in /  1020.5hPa NNE 0.4mph /  0.6km/h 3mph /  4.8km/h 75.2% 0.00in /  0mm 323 W/m2
13:14 71.5 °F /  21.9 °C 62.8 °F /  17.1 °C 30.14in /  1020.5hPa East 1.2mph /  1.9km/h 4mph /  6.4km/h 73.9% 0.00in /  0mm 381 W/m2
13:19 71.4 °F /  21.9 °C 62.8 °F /  17.1 °C 30.13in /  1020.2hPa East 0.1mph /  0.2km/h 4mph /  6.4km/h 74.4% 0.00in /  0mm 288 W/m2
13:24 71.5 °F /  21.9 °C 63.3 °F /  17.4 °C 30.13in /  1020.2hPa ENE 0.5mph /  0.8km/h 5mph /  8km/h 75.1% 0.00in /  0mm 257 W/m2
13:29 71.6 °F /  22 °C 62.5 °F /  16.9 °C 30.13in /  1020.2hPa ENE 0.8mph /  1.3km/h 5mph /  8km/h 73.1% 0.00in /  0mm 174 W/m2
13:34 71.5 °F /  21.9 °C 62.3 °F /  16.8 °C 30.13in /  1020.2hPa NE 0.6mph /  1km/h 5mph /  8km/h 72.7% 0.00in /  0mm 146 W/m2
13:39 71.5 °F /  21.9 °C 62.8 °F /  17.1 °C 30.13in /  1020.2hPa NNE 0.6mph /  1km/h 5mph /  8km/h 74% 0.00in /  0mm 146 W/m2
13:44 71.5 °F /  21.9 °C 61.9 °F /  16.6 °C 30.13in /  1020.2hPa ENE 2mph /  3.2km/h 7mph /  11.3km/h 71.7% 0.00in /  0mm 74 W/m2
13:49 71.5 °F /  21.9 °C 61.8 °F /  16.6 °C 30.12in /  1019.9hPa East 1.3mph /  2.1km/h 7mph /  11.3km/h 71.3% 0.00in /  0mm 209 W/m2
13:54 71.6 °F /  22 °C 60.9 °F /  16.1 °C 30.12in /  1019.9hPa NE 2.2mph /  3.5km/h 9mph /  14.5km/h 69.1% 0.00in /  0mm 216 W/m2
13:59 71.8 °F /  22.1 °C 61.3 °F /  16.3 °C 30.12in /  1019.9hPa NE 1mph /  1.6km/h 9mph /  14.5km/h 69.5% 0.00in /  0mm 260 W/m2
14:04 72 °F /  22.2 °C 61.5 °F /  16.4 °C 30.12in /  1019.9hPa NNE 0.5mph /  0.8km/h 9mph /  14.5km/h 69.6% 0.00in /  0mm 264 W/m2
14:09 72.2 °F /  22.3 °C 61.9 °F /  16.6 °C 30.12in /  1019.9hPa NE 0.4mph /  0.6km/h 4mph /  6.4km/h 69.9% 0.00in /  0mm 229 W/m2
14:14 72.3 °F /  22.4 °C 61.3 °F /  16.3 °C 30.12in /  1019.9hPa ESE 0.7mph /  1.1km/h 5mph /  8km/h 68.4% 0.00in /  0mm 221 W/m2
14:19 72.3 °F /  22.4 °C 61.1 °F /  16.2 °C 30.12in /  1019.9hPa Calm   5mph /  8km/h 67.9% 0.00in /  0mm 204 W/m2
14:24 72.3 °F /  22.4 °C 61 °F /  16.1 °C 30.12in /  1019.9hPa Calm   5mph /  8km/h 67.7% 0.00in /  0mm 132 W/m2
14:29 72.2 °F /  22.3 °C 60.8 °F /  16 °C 30.12in /  1019.9hPa Calm   5mph /  8km/h 67.5% 0.00in /  0mm 125 W/m2
14:34 72.1 °F /  22.3 °C 60.8 °F /  16 °C 30.11in /  1019.5hPa Calm   5mph /  8km/h 67.6% 0.00in /  0mm 132 W/m2
14:39 72.1 °F /  22.3 °C 60.6 °F /  15.9 °C 30.11in /  1019.5hPa East 0.1mph /  0.2km/h 2mph /  3.2km/h 67.2% 0.00in /  0mm 104 W/m2
14:44 72.2 °F /  22.3 °C 60.6 °F /  15.9 °C 30.11in /  1019.5hPa Calm   2mph /  3.2km/h 67% 0.00in /  0mm 120 W/m2
14:49 72.2 °F /  22.3 °C 61 °F /  16.1 °C 30.11in /  1019.5hPa ENE 1mph /  1.6km/h 4mph /  6.4km/h 67.7% 0.00in /  0mm 105 W/m2
14:54 72.2 °F /  22.3 °C 60.2 °F /  15.7 °C 30.11in /  1019.5hPa ENE 1.1mph /  1.8km/h 6mph /  9.7km/h 65.9% 0.00in /  0mm 102 W/m2
14:59 72.1 °F /  22.3 °C 60 °F /  15.6 °C 30.11in /  1019.5hPa NE 1.1mph /  1.8km/h 7mph /  11.3km/h 65.5% 0.00in /  0mm 77 W/m2
15:04 72.1 °F /  22.3 °C 60.3 °F /  15.7 °C 30.11in /  1019.5hPa NE 0.1mph /  0.2km/h 7mph /  11.3km/h 66.3% 0.00in /  0mm 81 W/m2
15:09 72.1 °F /  22.3 °C 60.6 °F /  15.9 °C 30.11in /  1019.5hPa NE 0.5mph /  0.8km/h 5mph /  8km/h 67% 0.00in /  0mm 93 W/m2
15:14 72.1 °F /  22.3 °C 60.6 °F /  15.9 °C 30.11in /  1019.5hPa ENE 0.4mph /  0.6km/h 5mph /  8km/h 67.2% 0.00in /  0mm 116 W/m2
15:19 72.2 °F /  22.3 °C 60.6 °F /  15.9 °C 30.11in /  1019.5hPa ENE 0.7mph /  1.1km/h 5mph /  8km/h 66.9% 0.00in /  0mm 125 W/m2
15:24 72.3 °F /  22.4 °C 60.4 °F /  15.8 °C 30.11in /  1019.5hPa ENE 2.1mph /  3.4km/h 6mph /  9.7km/h 66.2% 0.00in /  0mm 169 W/m2
15:29 72.5 °F /  22.5 °C 60 °F /  15.6 °C 30.11in /  1019.5hPa East 0.1mph /  0.2km/h 6mph /  9.7km/h 65% 0.00in /  0mm 200 W/m2
15:34 72.5 °F /  22.5 °C 59.8 °F /  15.4 °C 30.11in /  1019.5hPa East 1.5mph /  2.4km/h 6mph /  9.7km/h 64.4% 0.00in /  0mm 229 W/m2
15:39 72.5 °F /  22.5 °C 59.7 °F /  15.4 °C 30.11in /  1019.5hPa ENE 2mph /  3.2km/h 6mph /  9.7km/h 64.3% 0.00in /  0mm 91 W/m2
15:44 72.3 °F /  22.4 °C 59.8 °F /  15.4 °C 30.12in /  1019.9hPa ENE 0.6mph /  1km/h 6mph /  9.7km/h 64.7% 0.00in /  0mm 83 W/m2
15:49 72.2 °F /  22.3 °C 60 °F /  15.6 °C 30.12in /  1019.9hPa ENE 0.4mph /  0.6km/h 6mph /  9.7km/h 65.4% 0.00in /  0mm 56 W/m2
15:54 72 °F /  22.2 °C 59.8 °F /  15.4 °C 30.12in /  1019.9hPa East 0.1mph /  0.2km/h 6mph /  9.7km/h 65.5% 0.00in /  0mm 51 W/m2
15:59 71.8 °F /  22.1 °C 59.9 °F /  15.5 °C 30.12in /  1019.9hPa East 0.4mph /  0.6km/h 6mph /  9.7km/h 66% 0.00in /  0mm 49 W/m2
16:00 71.8 °F /  22.1 °C 59.8 °F /  15.4 °C 30.12in /  1019.9hPa Calm   6mph /  9.7km/h 66% 0.00in /  0mm 47 W/m2
16:09 71.6 °F /  22 °C 59.7 °F /  15.4 °C 30.11in /  1019.5hPa Calm     66.2% 0.00in /  0mm 40 W/m2
16:14 71.6 °F /  22 °C 60 °F /  15.6 °C 30.11in /  1019.5hPa Calm   1mph /  1.6km/h 66.8% 0.00in /  0mm 40 W/m2
16:19 71.5 °F /  21.9 °C 59.6 °F /  15.3 °C 30.12in /  1019.9hPa ENE 0.1mph /  0.2km/h 1mph /  1.6km/h 66.2% 0.00in /  0mm 40 W/m2
16:24 71.5 °F /  21.9 °C 59.7 °F /  15.4 °C 30.12in /  1019.9hPa Calm   1mph /  1.6km/h 66.3% 0.00in /  0mm 40 W/m2
16:29 71.4 °F /  21.9 °C 59.5 °F /  15.3 °C 30.12in /  1019.9hPa Calm   1mph /  1.6km/h 66.1% 0.00in /  0mm 37 W/m2
16:34 71.3 °F /  21.8 °C 59.6 °F /  15.3 °C 30.12in /  1019.9hPa Calm   1mph /  1.6km/h 66.5% 0.00in /  0mm 44 W/m2
16:39 71.2 °F /  21.8 °C 59.7 °F /  15.4 °C 30.12in /  1019.9hPa Calm     67% 0.00in /  0mm 44 W/m2
16:44 71.1 °F /  21.7 °C 60 °F /  15.6 °C 30.12in /  1019.9hPa Calm     68% 0.00in /  0mm 46 W/m2
16:49 71 °F /  21.7 °C 59.9 °F /  15.5 °C 30.12in /  1019.9hPa Calm     68% 0.00in /  0mm 49 W/m2
16:54 71 °F /  21.7 °C 59.9 °F /  15.5 °C 30.12in /  1019.9hPa Calm     68% 0.00in /  0mm 51 W/m2
16:59 70.9 °F /  21.6 °C 60.2 °F /  15.7 °C 30.12in /  1019.9hPa Calm     68.9% 0.00in /  0mm 47 W/m2
17:04 70.9 °F /  21.6 °C 60.2 °F /  15.7 °C 30.12in /  1019.9hPa Calm     69% 0.00in /  0mm 47 W/m2
17:09 70.8 °F /  21.6 °C 60.2 °F /  15.7 °C 30.12in /  1019.9hPa Calm     69.1% 0.00in /  0mm 42 W/m2
17:14 70.8 °F /  21.6 °C 60.4 °F /  15.8 °C 30.12in /  1019.9hPa Calm     69.8% 0.00in /  0mm 40 W/m2
17:19 70.7 °F /  21.5 °C 60.3 °F /  15.7 °C 30.12in /  1019.9hPa Calm     69.6% 0.00in /  0mm 33 W/m2
17:24 70.6 °F /  21.4 °C 60.3 °F /  15.7 °C 30.12in /  1019.9hPa Calm     70% 0.00in /  0mm 30 W/m2
17:29 70.4 °F /  21.3 °C 60.5 °F /  15.8 °C 30.12in /  1019.9hPa Calm     70.7% 0.00in /  0mm 25 W/m2
17:34 70.3 °F /  21.3 °C 60.1 °F /  15.6 °C 30.13in /  1020.2hPa Calm     70.2% 0.00in /  0mm 21 W/m2
17:39 70.2 °F /  21.2 °C 60.3 °F /  15.7 °C 30.13in /  1020.2hPa Calm     71% 0.00in /  0mm 19 W/m2
17:44 70 °F /  21.1 °C 60 °F /  15.6 °C 30.13in /  1020.2hPa Calm     70.6% 0.00in /  0mm 18 W/m2
17:49 69.9 °F /  21.1 °C 60.1 °F /  15.6 °C 30.13in /  1020.2hPa Calm     71.1% 0.00in /  0mm 14 W/m2
17:54 69.7 °F /  20.9 °C 60.3 °F /  15.7 °C 30.13in /  1020.2hPa Calm     72% 0.00in /  0mm 12 W/m2
17:59 69.5 °F /  20.8 °C 60.1 °F /  15.6 °C 30.13in /  1020.2hPa Calm     72% 0.00in /  0mm 11 W/m2
18:04 69.3 °F /  20.7 °C 60.3 °F /  15.7 °C 30.13in /  1020.2hPa Calm     73.1% 0.00in /  0mm 9 W/m2
18:09 69.1 °F /  20.6 °C 60.7 °F /  15.9 °C 30.13in /  1020.2hPa Calm     74.7% 0.00in /  0mm 7 W/m2
18:14 68.9 °F /  20.5 °C 61 °F /  16.1 °C 30.13in /  1020.2hPa Calm     76% 0.00in /  0mm 5 W/m2
18:19 68.7 °F /  20.4 °C 61.3 °F /  16.3 °C 30.14in /  1020.5hPa Calm     77.3% 0.00in /  0mm 0 W/m2
18:24 68.4 °F /  20.2 °C 61.4 °F /  16.3 °C 30.14in /  1020.5hPa Calm     78.2% 0.00in /  0mm 0 W/m2
18:29 68.2 °F /  20.1 °C 61.4 °F /  16.3 °C 30.14in /  1020.5hPa Calm     78.9% 0.00in /  0mm 0 W/m2
18:34 67.9 °F /  19.9 °C 61.1 °F /  16.2 °C 30.14in /  1020.5hPa Calm     79% 0.00in /  0mm 0 W/m2
18:39 67.5 °F /  19.7 °C 60.8 °F /  16 °C 30.14in /  1020.5hPa Calm     79% 0.00in /  0mm 0 W/m2
18:44 67.3 °F /  19.6 °C 60.7 °F /  15.9 °C 30.14in /  1020.5hPa Calm     79.6% 0.00in /  0mm 0 W/m2
18:49 67 °F /  19.4 °C 60.8 °F /  16 °C 30.14in /  1020.5hPa Calm     80.5% 0.00in /  0mm 0 W/m2
18:54 66.8 °F /  19.3 °C 60.8 °F /  16 °C 30.14in /  1020.5hPa Calm     81% 0.00in /  0mm 0 W/m2
18:59 66.6 °F /  19.2 °C 60.7 °F /  15.9 °C 30.15in /  1020.9hPa Calm     81.4% 0.00in /  0mm 0 W/m2
19:04 66.4 °F /  19.1 °C 60.7 °F /  15.9 °C 30.14in /  1020.5hPa Calm     82% 0.00in /  0mm 0 W/m2
19:09 66.2 °F /  19 °C 60.5 °F /  15.8 °C 30.15in /  1020.9hPa Calm     82% 0.00in /  0mm 0 W/m2
19:14 66 °F /  18.9 °C 60.6 °F /  15.9 °C 30.15in /  1020.9hPa Calm     82.7% 0.00in /  0mm 0 W/m2
19:19 65.8 °F /  18.8 °C 60.5 °F /  15.8 °C 30.15in /  1020.9hPa Calm     83% 0.00in /  0mm 0 W/m2
19:24 65.7 °F /  18.7 °C 60.6 °F /  15.9 °C 30.15in /  1020.9hPa Calm     83.6% 0.00in /  0mm 0 W/m2
19:29 65.5 °F /  18.6 °C 60.6 °F /  15.9 °C 30.15in /  1020.9hPa Calm     84% 0.00in /  0mm 0 W/m2
19:34 65.4 °F /  18.6 °C 60.5 °F /  15.8 °C 30.15in /  1020.9hPa Calm     84% 0.00in /  0mm 0 W/m2
19:39 65.3 °F /  18.5 °C 60.5 °F /  15.8 °C 30.16in /  1021.2hPa Calm     84.4% 0.00in /  0mm 0 W/m2
19:44 65.1 °F /  18.4 °C 60.3 °F /  15.7 °C 30.16in /  1021.2hPa Calm     84.3% 0.00in /  0mm 0 W/m2
19:49 65 °F /  18.3 °C 60.4 °F /  15.8 °C 30.16in /  1021.2hPa Calm     85% 0.00in /  0mm 0 W/m2
19:54 64.9 °F /  18.3 °C 60.3 °F /  15.7 °C 30.16in /  1021.2hPa Calm     85% 0.00in /  0mm 0 W/m2
19:59 64.8 °F /  18.2 °C 60.2 °F /  15.7 °C 30.16in /  1021.2hPa Calm     85% 0.00in /  0mm 0 W/m2
20:00 64.7 °F /  18.2 °C 60.1 °F /  15.6 °C 30.16in /  1021.2hPa Calm     85% 0.00in /  0mm 0 W/m2
20:09 64.5 °F /  18.1 °C 59.2 °F /  15.1 °C 30.17in /  1021.6hPa ENE 2.5mph /  4km/h 11mph /  17.7km/h 82.8% 0.00in /  0mm 0 W/m2
20:14 64.7 °F /  18.2 °C 58.7 °F /  14.8 °C 30.17in /  1021.6hPa ENE 1.1mph /  1.8km/h 11mph /  17.7km/h 80.8% 0.00in /  0mm 0 W/m2
20:19 64.9 °F /  18.3 °C 58.5 °F /  14.7 °C 30.17in /  1021.6hPa East 0.1mph /  0.2km/h 11mph /  17.7km/h 79.8% 0.00in /  0mm 0 W/m2
20:24 65 °F /  18.3 °C 58.3 °F /  14.6 °C 30.17in /  1021.6hPa Calm   11mph /  17.7km/h 79% 0.00in /  0mm 0 W/m2
20:29 65 °F /  18.3 °C 58.3 °F /  14.6 °C 30.17in /  1021.6hPa East 0.1mph /  0.2km/h 11mph /  17.7km/h 79% 0.00in /  0mm 0 W/m2
20:34 64.9 °F /  18.3 °C 58.2 °F /  14.6 °C 30.17in /  1021.6hPa Calm   11mph /  17.7km/h 79% 0.00in /  0mm 0 W/m2
20:39 64.8 °F /  18.2 °C 58 °F /  14.4 °C 30.18in /  1021.9hPa East 0.1mph /  0.2km/h 3mph /  4.8km/h 78.7% 0.00in /  0mm 0 W/m2
20:44 64.6 °F /  18.1 °C 57.6 °F /  14.2 °C 30.18in /  1021.9hPa Calm   3mph /  4.8km/h 78% 0.00in /  0mm 0 W/m2
20:49 64.5 °F /  18.1 °C 57.5 °F /  14.2 °C 30.18in /  1021.9hPa Calm   3mph /  4.8km/h 78% 0.00in /  0mm 0 W/m2
20:54 64.3 °F /  17.9 °C 57.4 °F /  14.1 °C 30.18in /  1021.9hPa Calm   3mph /  4.8km/h 78.4% 0.00in /  0mm 0 W/m2
20:59 64 °F /  17.8 °C 57.1 °F /  13.9 °C 30.18in /  1021.9hPa Calm   3mph /  4.8km/h 78% 0.00in /  0mm 0 W/m2
21:04 63.9 °F /  17.7 °C 57 °F /  13.9 °C 30.18in /  1021.9hPa Calm   3mph /  4.8km/h 78.5% 0.00in /  0mm 0 W/m2
21:09 63.6 °F /  17.6 °C 57 °F /  13.9 °C 30.19in /  1022.2hPa Calm     79% 0.00in /  0mm 0 W/m2
21:14 63.4 °F /  17.4 °C 56.8 °F /  13.8 °C 30.19in /  1022.2hPa Calm     79% 0.00in /  0mm 0 W/m2
21:19 63.2 °F /  17.3 °C 56.8 °F /  13.8 °C 30.19in /  1022.2hPa Calm     79.6% 0.00in /  0mm 0 W/m2
21:24 63 °F /  17.2 °C 56.7 °F /  13.7 °C 30.19in /  1022.2hPa Calm     80% 0.00in /  0mm 0 W/m2
21:29 62.7 °F /  17.1 °C 56.5 °F /  13.6 °C 30.19in /  1022.2hPa Calm     80% 0.00in /  0mm 0 W/m2
21:34 62.4 °F /  16.9 °C 56.2 °F /  13.4 °C 30.19in /  1022.2hPa ENE 1mph /  1.6km/h 7mph /  11.3km/h 80% 0.00in /  0mm 0 W/m2
21:39 62.2 °F /  16.8 °C 55.7 °F /  13.2 °C 30.20in /  1022.6hPa East 1.8mph /  2.9km/h 9mph /  14.5km/h 79% 0.00in /  0mm 0 W/m2
21:44 62.2 °F /  16.8 °C 55.3 °F /  12.9 °C 30.20in /  1022.6hPa East 1.4mph /  2.3km/h 9mph /  14.5km/h 78% 0.00in /  0mm 0 W/m2
21:49 62.2 °F /  16.8 °C 55.3 °F /  12.9 °C 30.20in /  1022.6hPa East 1.4mph /  2.3km/h 9mph /  14.5km/h 78% 0.00in /  0mm 0 W/m2
21:54 62.2 °F /  16.8 °C 55.3 °F /  12.9 °C 30.20in /  1022.6hPa East 1.9mph /  3.1km/h 10mph /  16.1km/h 78% 0.00in /  0mm 0 W/m2
21:59 62.2 °F /  16.8 °C 55.2 °F /  12.9 °C 30.20in /  1022.6hPa ENE 1.2mph /  1.9km/h 10mph /  16.1km/h 78% 0.00in /  0mm 0 W/m2
22:04 62.1 °F /  16.7 °C 55.2 °F /  12.9 °C 30.20in /  1022.6hPa ENE 2.8mph /  4.5km/h 13mph /  20.9km/h 78.2% 0.00in /  0mm 0 W/m2
22:09 61.9 °F /  16.6 °C 55.4 °F /  13 °C 30.21in /  1022.9hPa East 2.1mph /  3.4km/h 13mph /  20.9km/h 79% 0.00in /  0mm 0 W/m2
22:14 61.7 °F /  16.5 °C 55.5 °F /  13.1 °C 30.21in /  1022.9hPa East 1.1mph /  1.8km/h 13mph /  20.9km/h 79.9% 0.00in /  0mm 0 W/m2
22:19 61.5 °F /  16.4 °C 55.5 °F /  13.1 °C 30.21in /  1022.9hPa ENE 1.1mph /  1.8km/h 13mph /  20.9km/h 80.6% 0.00in /  0mm 0 W/m2
22:24 61.3 °F /  16.3 °C 55.4 °F /  13 °C 30.21in /  1022.9hPa ENE 1.2mph /  1.9km/h 13mph /  20.9km/h 81% 0.00in /  0mm 0 W/m2
22:29 61 °F /  16.1 °C 55.5 °F /  13.1 °C 30.21in /  1022.9hPa ENE 2.3mph /  3.7km/h 13mph /  20.9km/h 82% 0.00in /  0mm 0 W/m2
22:34 60.8 °F /  16 °C 55.6 °F /  13.1 °C 30.21in /  1022.9hPa East 0.9mph /  1.4km/h 13mph /  20.9km/h 83% 0.00in /  0mm 0 W/m2
22:39 60.5 °F /  15.8 °C 55.6 °F /  13.1 °C 30.21in /  1022.9hPa NE 1mph /  1.6km/h 9mph /  14.5km/h 83.9% 0.00in /  0mm 0 W/m2
22:44 60.3 °F /  15.7 °C 55.5 °F /  13.1 °C 30.21in /  1022.9hPa ENE 1.4mph /  2.3km/h 9mph /  14.5km/h 84% 0.00in /  0mm 0 W/m2
22:49 60.2 °F /  15.7 °C 55.6 °F /  13.1 °C 30.21in /  1022.9hPa ENE 0.7mph /  1.1km/h 9mph /  14.5km/h 85% 0.00in /  0mm 0 W/m2
22:54 60 °F /  15.6 °C 55.5 °F /  13.1 °C 30.21in /  1022.9hPa NE 1.7mph /  2.7km/h 9mph /  14.5km/h 85% 0.00in /  0mm 0 W/m2
22:59 59.8 °F /  15.4 °C 55.3 °F /  12.9 °C 30.21in /  1022.9hPa NE 0.3mph /  0.5km/h 9mph /  14.5km/h 85% 0.00in /  0mm 0 W/m2
23:04 59.7 °F /  15.4 °C 55.5 °F /  13.1 °C 30.21in /  1022.9hPa Calm   9mph /  14.5km/h 85.7% 0.00in /  0mm 0 W/m2
23:09 59.6 °F /  15.3 °C 55.4 °F /  13 °C 30.21in /  1022.9hPa Calm     86% 0.00in /  0mm 0 W/m2
23:14 59.5 °F /  15.3 °C 55.3 °F /  12.9 °C 30.21in /  1022.9hPa Calm     86% 0.00in /  0mm 0 W/m2
23:19 59.4 °F /  15.2 °C 55.3 °F /  12.9 °C 30.21in /  1022.9hPa Calm     86% 0.00in /  0mm 0 W/m2
23:24 59.3 °F /  15.2 °C 55.1 °F /  12.8 °C 30.22in /  1023.2hPa Calm     86% 0.00in /  0mm 0 W/m2
23:29 59.1 °F /  15.1 °C 55 °F /  12.8 °C 30.22in /  1023.2hPa Calm     86% 0.00in /  0mm 0 W/m2
23:34 59 °F /  15 °C 54.8 °F /  12.7 °C 30.22in /  1023.2hPa Calm     86% 0.00in /  0mm 0 W/m2
23:39 58.9 °F /  14.9 °C 54.7 °F /  12.6 °C 30.21in /  1022.9hPa Calm     86% 0.00in /  0mm 0 W/m2
23:44 58.7 °F /  14.8 °C 54.6 °F /  12.6 °C 30.22in /  1023.2hPa Calm     86.4% 0.00in /  0mm 0 W/m2
23:49 58.6 °F /  14.8 °C 54.7 °F /  12.6 °C 30.22in /  1023.2hPa Calm     87% 0.00in /  0mm 0 W/m2
23:54 58.4 °F /  14.7 °C 54.6 °F /  12.6 °C 30.22in /  1023.2hPa Calm     87% 0.00in /  0mm 0 W/m2
23:59 58.3 °F /  14.6 °C 54.5 °F /  12.5 °C 30.22in /  1023.2hPa Calm     87.3% 0.00in /  0mm 0 W/m2
Hartford County Weather
Compliments of Weather Underground - 2 mb